AR12 weather

Mc Donald's Strip
Rose Bud, Arkansas, United States

Public forecast

Using degrees Fahrenheit for public forecast. Weather courtesy of forecast.io.

METAR (pilot weather report)

Closest report is Searcy Municipal Airport, 15.3 nm (28.3 km) ESE. Retrieved 2019/09/24 07:56 UTC (23 minutes ago):

KSRC 240756Z AUTO 04005KT 10SM FEW039 21/19 A3001 RMK AO2 SLP164 T02110194

TAF (pilot weather forecast)

Closest forecast is Little Rock Air Force Base, 25.1 nm (46.4 km) SSW. Retrieved 2019/09/24 07:12 UTC (1 hour ago):

TAF TAF KLRF 240700Z 2407/2513 VRB06KT 9999 SCT020 BKN120 QNH3001INS BECMG 2409/2410 VRB06KT 9999 BKN025 OVC100 QNH3000INS BECMG 2417/2418 09006KT 9000 -SHRA BKN020 OVC090 QNH3003INS BECMG 2421/2422 VRB06KT 9999 NSW BKN030 QNH2987INS TX26/2422Z TN21/2414Z